Etusivu
METAR-TAF:

METAR-TAF

Lentoasemat :

Pointe-Noire, Kongo

Leveyspiiri: 04-49S, Pituuspiiri: 011-54E, korkeus merenpinnasta: 17 m

Tämänhetkinen sää

Tämä raportti tehtiin 27 minuuttia sitten, kello 21.00 UTC
Tuuli 2 kn lännestä/lounaasta
Lämpötila 22°C
Kosteus 94%
Ilmanpaine 1014 hPa
Näkyvyys: 7000 m
Muutamia pilviä 1000 ft:n korkeudessa

METAR: FCPP 172100Z 24002KT 7000 FEW010 22/21 Q1014 NOSIG

Aika: 22:27 (21:27 UTC)

Sääennuste

Tämä raportti tehtiin 4 tuntia ja 27 minuuttia sitten, kello 17.00 UTC
Ennuste voimassa 17. päivästä klo 18 UTC - 18. päivään klo 18 UTC
Tuuli 4 kn etelästä/lounaasta
Näkyvyys: 8000 m
Hajanaisia pilviä 1000 ft:n korkeudessa
Pilvistä 2300 ft:n korkeudessa
Tulossa
18. päivästä klo 03 UTC - 18. päivään klo 05 UTC
Näkyvyys: 4000 m
utua
Tulossa
18. päivästä klo 06 UTC - 18. päivään klo 08 UTC
Näkyvyys: 8000 m

TAF: FCPP 171700Z 1718/1818 20004KT 8000 SCT010 OVC023 BECMG 1803/1805 4000 BR BECMG 1806/1808 8000 NSW

Säähavainnot ja -ennusteet yli 4000 lentoasemalta (METAR- ja TAF-raportit).

Käytössä olevat sääasemat on merkitty karttaan keltaisilla ja punaisilla pisteillä.

Aseta hiiri pisteen päälle nähdäksesi sääaseman nimen.

Klikkaa sitten nähdäksesi säähavainnot ja -ennusteet.

Kartan vaihtaminen: klikkaa mustalla rastilla varustettuja vihreitä pisteitä, niin voit zoomata sisään; viivalla varustettua vihreää pistettä, niin voit zoomata ulos tai vihreitä nuolia, niin pääset viereisille kartoille.


METAR-TAF: